Portada
METAR-TAF:

METAR-TAF

Aeroports :

Tachikawa, Japó

latitud: 35-42N, longitud: 139-24E, altitud: 95 m

Observació

L'informe es va fer fa 7 hores i 51 minuts, a les 07:28 UTC
Vent 7 kt del Nord
Temperatura 8°C
Humitat 87%
Pressió 1031 hPa
Visibilitat: 3500 m
Escasses núvols a una alçada de 2000 ft
Cel ennuvolat a una alçada de 2500 ft
Cel ennuvolat a una alçada de 3000 ft
pluja, boirina

METAR: RJTC 220728Z 36007KT 3500 RA BR FEW020 BKN025 BKN030 08/06 Q1031 RMK 2CU020 6SC025 7SC030 A3045

Hora: 00:19 (15:19 UTC)


TAF: manca

Observacions i pronòstics meteorològics de més de 4000 aeroports (METAR i TAF).

Les estacions disponibles són els punts grocs i vermells al mapa.

Posi el ratolí al punt desitjat per veure el nom de l'estació.

Feu clic per veure les observacions i els pronòstics meteorològics.

Per canviar el mapa: feu clic els botons verds amb una creu de color negre per apropar; al botó verd amb un guió per allunyar la imatge; o en les fletxes verdes per a mapes adjacents.


METAR-TAF: